Gardenville, PA (18926)

1:47 PM EST on November 26, 2014 (GMT -0500)
Coldspring | Change Station
CLOSE
Current Station
Personal Weather Station
Location: Doylestown, PA
Elevation: 354 ft
Nearby Weather Stations
Active Advisory: Winter Storm Warning Active Notice: Public Information Statement

Elev 354 ft 40.35 °N, 75.10 °W | Updated 17 seconds ago

Snow
Snow
32.7 °F
Feels Like 33 °F
N
0.0
Wind Variable Wind from ENE
Gusts 2.0 mph

Today
High -- | Low -- °F
--% Chance of Precip.
Yesterday
High -- | Low -- °F
Precip. -- in
6:58 AM 4:36 PM
Waxing Crescent, 21% visible
Pressure 29.98 in
Visibility 1.5 miles
Clouds Few 200 ft
Overcast 600 ft
Windchill 33 °F
Dew Point 32 °F
Humidity 96%
Rainfall 0.37 in
Snow Depth Not available.
UV 1 out of 12
Pollen .10 out of 12
Air Quality Not available.
Flu Activity Not available.
METAR KDYL 261754Z AUTO 02008KT 1 1/2SM -SN BR FEW002 OVC006 00/00 A2996 RMK AO2 SLP151 P0001 60029 T00000000 10039 20000 58028

More Conditions Fewer Conditions

Pressure 29.98 in
Visibility 1.5 miles
Clouds Few 200 ft
Overcast 600 ft
Windchill 33 °F
Dew Point 32 °F
Humidity 96%
Rainfall 0.37 in
Snow Depth Not available.
UV 1 out of 12
Pollen .10 out of 12
Air Quality Not available.
Flu Activity Not available.
METAR KDYL 261754Z AUTO 02008KT 1 1/2SM -SN BR FEW002 OVC006 00/00 A2996 RMK AO2 SLP151 P0001 60029 T00000000 10039 20000 58028

More Conditions Fewer Conditions

Nowcast | as of 11:46 am EST on November 26, 2014

Rain has begun to change over to snow, and light to moderate snow will continue into the afternoon hours. Light rain or sleet may continue to mix in at times, but the precipitation is now expected to remain all snow for most areas. Temperatures will remain in the lower to mid 30s. Northeast winds around 5 to 10 mph with gusts around 15 mph will continue as well. A few isolated lightning strikes and rumbles of thunder may also occur. Drivers are urged to use caution and be alert for changing weather conditions and roadway conditions.

×

10-Day Weather Forecast

Almanac

Astronomy

Nov. 26, 2014 Rise Set
Actual Time
Civil Twilight
Nautical Twilight
Astronomical Twilight
Moon
Length of Visible Light
Length of Day
Tomorrow will be .
, % of the Moon is Illuminated

Today's Extremes

State Highs State Lows

Community

WunderPhotos

Upload Photos

1,773,827 photos uploaded!

WunderBlogs® & News

Nearby

Air Quality

  Air Quality AQ Index Pollutant
Not available.

Snow Depth

Station Depth Elevation

Earthquake Activity

City Distance Mag. Time & Date
Minimum magnitude displayed is 2.5.

Coastal Water Temperatures

Place Temperature

Nearby Weather Stations